• Join FlightAware (Why Join?)
  • Login
  • US Flag 
05:54PM EDT


 

Airport Tracker/Info


-or-


 

Live Flight TrackerFlight Track Log ✈ DAL3860 ✈ 13-Nov-2013 ✈ KMSP - KCVG

Flight Track Log - Related Links

Times and Time Zones

All times are in EST time to prevent confusion due to time zone crossing. See the DAL3860 flight status page for this flight to view local times or setup timezone preferences in your user account.

Time Position Orientation Groundspeed Altitude Reporting Facility
EST Latitude Longitude Course Direction KTS MPH feet Rate Location/Type
04:49PM 44.8289 -93.2272 130° Southeast 147 169 3,100  Level Minneapolis Center
04:50PM 44.7642 -93.2117 170° South 235 270 4,000 1,800 Climbing Minneapolis Center
04:51PM 44.6969 -93.2664 210° Southwest 252 290 6,900 2,520 Climbing Minneapolis Center
04:52PM 44.6314 -93.3144 208° Southwest 268 308 9,300 1,860 Climbing Minneapolis Center
04:54PM 44.5711 -93.2011 127° Southeast 356 410 10,800 1,500 Climbing Minneapolis Center
04:55PM 44.4691 -92.5258 130° Southeast  Level Estimated
04:55PM 44.5375 -93.0636 109° East 378 435 12,500  Level Minneapolis Center
04:56PM 44.5039 -92.9194 108° East 391 450 14,300 1,680 Climbing Minneapolis Center
04:57PM 44.4700 -92.7722 108° East 399 459 16,000 1,260 Climbing Minneapolis Center
04:58PM 44.4192 -92.6308 117° Southeast 409 471 17,000 480 Climbing Minneapolis Center
04:59PM 44.3433 -92.4567 121° Southeast 438 504 17,100 420 Climbing Minneapolis Center
05:00PM 44.2789 -92.3092 121° Southeast 445 512 17,900 780 Climbing Minneapolis Center
05:01PM 44.2150 -92.1586 121° Southeast 450 518 18,800 900 Climbing Minneapolis Center
05:02PM 44.1483 -92.0078 122° Southeast 455 524 19,800 960 Climbing Minneapolis Center
05:03PM 44.0825 -91.8592 122° Southeast 455 524 20,800 960 Climbing Minneapolis Center
05:04PM 44.0167 -91.7086 121° Southeast 455 524 21,800 1,020 Climbing Minneapolis Center
05:05PM 43.9386 -91.5297 121° Southeast 454 522 23,000 900 Climbing Minneapolis Center
05:06PM 43.8622 -91.3964 128° Southeast 451 519 23,700 540 Climbing Minneapolis Center
05:07PM 43.7736 -91.2767 136° Southeast 447 514 24,200 480 Climbing Minneapolis Center
05:08PM 43.6850 -91.1528 135° Southeast 451 519 24,700 480 Climbing Minneapolis Center
05:09PM 43.5964 -91.0281 134° Southeast 455 524 25,200 480 Climbing Minneapolis Center
05:10PM 43.5064 -90.9025 135° Southeast 459 528 25,700 480 Climbing Minneapolis Center
05:11PM 43.3978 -90.7544 135° Southeast 459 528 26,300 480 Climbing Minneapolis Center
05:12PM 43.3067 -90.6297 135° Southeast 462 532 26,800 480 Climbing Minneapolis Center
05:13PM 43.2172 -90.5064 135° Southeast 459 528 27,300 480 Climbing Minneapolis Center
05:14PM 43.1267 -90.3833 135° Southeast 459 528 27,900 480 Climbing Minneapolis Center
05:15PM 43.0353 -90.2622 136° Southeast 460 529 28,400 480 Climbing Minneapolis Center
05:16PM 42.9397 -90.1333 135° Southeast 455 524 28,900 480 Climbing Minneapolis Center
05:17PM 42.8517 -90.0150 135° Southeast 451 519 29,400 480 Climbing Minneapolis Center
05:19PM 42.7050 -89.8208 136° Southeast 456 525 30,200 480 Climbing Chicago Center
05:20PM 42.6156 -89.7031 136° Southeast 452 520 30,700 360 Climbing Chicago Center
05:21PM 42.5264 -89.5864 136° Southeast 448 516 31,000 120 Climbing Chicago Center
05:22PM 42.4369 -89.4683 136° Southeast 452 520 31,000  Level Chicago Center
05:23PM 42.3297 -89.3283 136° Southeast 450 518 31,000  Level Chicago Center
05:24PM 42.2417 -89.2131 136° Southeast 445 512 31,000  Level Chicago Center
05:25PM 42.1533 -89.0992 136° Southeast 442 509 31,000  Level Chicago Center
05:26PM 42.0600 -88.9792 136° Southeast 444 511 31,000  Level Chicago Center
05:27PM 41.9725 -88.8647 136° Southeast 442 509 31,000  Level Chicago Center
05:28PM 41.8839 -88.7514 136° Southeast 442 509 31,000  Level Chicago Center
05:29PM 41.7958 -88.6383 136° Southeast 441 507 31,000  Level Chicago Center
05:30PM 41.6897 -88.5019 136° Southeast 442 509 31,000 -480 Level Chicago Center
05:31PM 41.6019 -88.3881 136° Southeast 443 510 30,100 -960 Descending Chicago Center
05:32PM 41.5136 -88.2750 136° Southeast 443 510 29,000 -540 Descending Chicago Center
05:33PM 41.4261 -88.1628 136° Southeast 446 513 29,000  Level Chicago Center
05:34PM 41.3236 -88.0331 136° Southeast 446 513 29,000  Level Chicago Center
05:35PM 41.2342 -87.9194 136° Southeast 448 516 29,000  Level Chicago Center
05:36PM 41.1444 -87.8050 136° Southeast 450 518 29,000  Level Chicago Center
05:37PM 41.0531 -87.6908 137° Southeast 452 520 29,000 -300 Level Chicago Center
05:38PM 40.9442 -87.5531 136° Southeast 454 522 28,500 -780 Descending Chicago Center
05:40PM 40.8539 -87.4406 137° Southeast 450 518 27,500 -780 Descending Chicago Center
05:41PM 40.7631 -87.3269 137° Southeast 452 520 27,000 -240 Descending Chicago Center
05:42PM 40.6728 -87.2142 137° Southeast 448 516 27,000  Level Chicago Center
05:43PM 40.5819 -87.1036 137° Southeast 448 516 27,000  Level Chicago Center
05:44PM 40.4728 -87.0194 150° Southeast 465 535 27,000 -240 Level Chicago Center
05:45PM 40.3408 -86.9244 151° Southeast 463 533 26,600 -840 Descending Chicago Center
05:46PM 40.2397 -86.8175 141° Southeast 467 537 25,300 -1,260 Descending Chicago Center
05:47PM 40.1433 -86.7158 141° Southeast 466 536 24,000 -1,140 Descending Chicago Center
05:48PM 40.0453 -86.6122 141° Southeast 458 527 23,000 -540 Descending Chicago Center
05:49PM 39.9522 -86.5144 141° Southeast 438 504 23,000 -900 Level Chicago Center
05:50PM 39.8392 -86.3953 141° Southeast 453 521 21,200 -1,800 Descending Chicago Center
05:51PM 39.7769 -86.2572 120° Southeast 461 531 19,400 -1,500 Descending Chicago Center
05:52PM 39.7300 -86.1150 113° Southeast 440 506 18,100 -1,560 Descending Chicago Center
05:53PM 39.6833 -85.9833 115° Southeast 417 480 16,400 -1,860 Descending Indianapolis TRACON
05:54PM 39.6333 -85.8500 116° Southeast 403 464 14,600 -1,500 Descending Indianapolis TRACON
05:55PM 39.6000 -85.7167 108° East 379 436 13,500 -1,080 Descending Indianapolis TRACON
05:55PM 39.5814 -85.6758 121° Southeast 391 450 13,000 -1,380 Descending Indianapolis Center
05:56PM 39.5392 -85.5500 113° Southeast 374 430 11,400 -1,020 Descending Indianapolis Center
05:57PM 39.4786 -85.4133 120° Southeast 370 426 11,000 -540 Descending Indianapolis Center
05:58PM 39.4369 -85.3078 117° Southeast 347 399 10,300 -840 Descending Indianapolis Center
05:59PM 39.4064 -85.2142 113° Southeast 313 360 9,300 -1,020 Descending Indianapolis Center
06:00PM 39.3753 -85.1206 113° Southeast 296 341 8,300 -1,020 Descending Indianapolis Center
06:02PM 39.3450 -85.0281 113° Southeast 288 331 7,300 -1,020 Descending Indianapolis Center
06:03PM 39.3136 -84.9375 114° Southeast 283 326 6,300 -1,080 Descending Indianapolis Center
06:04PM 39.2789 -84.8303 113° Southeast 277 319 5,100 -1,080 Descending Indianapolis Center
06:05PM 39.2486 -84.7519 117° Southeast 260 299 4,100 -600 Descending Indianapolis Center
06:06PM 39.2042 -84.7047 141° Southeast 250 288 3,900 -660 Descending Indianapolis Center
06:07PM 39.1333 -84.6667 157° South 143 165 2,400 -900 Descending Cincinnati TRACON
06:08PM 39.1000 -84.6667 180° South 133 153 1,700 -780 Descending Cincinnati TRACON
06:10PM 39.0488 -84.6678 180° South  Level Estimated
06:17PM 39.0488 -84.6678 North  Level Estimated